createdAt,value
2023-06-05T00:00:12.232Z,40.73
2023-06-05T00:01:12.243Z,40.72
2023-06-05T00:02:12.326Z,40.72
2023-06-05T00:03:12.257Z,40.70
2023-06-05T00:04:12.376Z,40.74
2023-06-05T00:05:12.207Z,40.71
2023-06-05T00:06:12.211Z,40.69
2023-06-05T00:07:12.179Z,40.68
2023-06-05T00:08:12.185Z,40.66
2023-06-05T00:09:12.175Z,40.64
2023-06-05T00:10:12.151Z,40.63
2023-06-05T00:11:12.182Z,40.63
2023-06-05T00:12:12.156Z,40.59
2023-06-05T00:13:12.140Z,40.62
2023-06-05T00:14:12.148Z,40.60
2023-06-05T00:15:12.131Z,40.60
2023-06-05T00:16:12.184Z,40.59
2023-06-05T00:17:12.103Z,40.59
2023-06-05T00:18:12.197Z,40.59
2023-06-05T00:19:12.291Z,40.60
2023-06-05T00:20:12.089Z,40.61
2023-06-05T00:21:12.132Z,40.62
2023-06-05T00:22:12.085Z,40.61
2023-06-05T00:23:12.079Z,40.61
2023-06-05T00:24:12.072Z,40.59
2023-06-05T00:25:12.134Z,40.59
2023-06-05T00:26:12.069Z,40.59
2023-06-05T00:27:12.046Z,40.57
2023-06-05T00:28:12.049Z,40.61
2023-06-05T00:29:12.062Z,40.59
2023-06-05T00:30:12.024Z,40.59
2023-06-05T00:31:12.123Z,40.61
2023-06-05T00:32:12.003Z,40.58
2023-06-05T00:33:12.031Z,40.56
2023-06-05T00:34:12.004Z,40.55
2023-06-05T00:35:11.989Z,40.56
2023-06-05T00:36:11.989Z,40.54
2023-06-05T00:37:11.972Z,40.55
2023-06-05T00:38:11.958Z,40.53
2023-06-05T00:39:11.967Z,40.55
2023-06-05T00:40:11.954Z,40.54
2023-06-05T00:41:11.979Z,40.50
2023-06-05T00:42:11.956Z,40.49
2023-06-05T00:43:11.946Z,40.48
2023-06-05T00:44:11.921Z,40.48
2023-06-05T00:45:11.935Z,40.50
2023-06-05T00:46:12.009Z,40.48
2023-06-05T00:47:11.919Z,40.48
2023-06-05T00:48:11.952Z,40.45
2023-06-05T00:49:11.910Z,40.47
2023-06-05T00:50:11.890Z,40.42
2023-06-05T00:51:11.928Z,40.41
2023-06-05T00:52:11.869Z,40.38
2023-06-05T00:53:11.872Z,40.41
2023-06-05T00:54:11.941Z,40.36
2023-06-05T00:55:11.858Z,40.36
2023-06-05T00:56:11.842Z,40.35
2023-06-05T00:57:11.857Z,40.36
2023-06-05T00:58:11.844Z,40.33
2023-06-05T00:59:11.845Z,40.33
2023-06-05T01:00:11.822Z,40.30
2023-06-05T01:01:11.959Z,40.27
2023-06-05T01:02:11.861Z,40.28
2023-06-05T01:03:11.958Z,40.26
2023-06-05T01:04:11.802Z,40.28
2023-06-05T01:05:11.798Z,40.22
2023-06-05T01:06:11.803Z,40.23
2023-06-05T01:07:11.804Z,40.24
2023-06-05T01:08:11.777Z,40.25
2023-06-05T01:09:11.800Z,40.25
2023-06-05T01:10:11.789Z,40.23
2023-06-05T01:11:11.764Z,40.25
2023-06-05T01:12:11.754Z,40.28
2023-06-05T01:13:11.753Z,40.32
2023-06-05T01:14:11.739Z,40.29
2023-06-05T01:15:11.746Z,40.28
2023-06-05T01:16:11.758Z,40.28
2023-06-05T01:17:11.839Z,40.27
2023-06-05T01:18:11.721Z,40.31
2023-06-05T01:19:11.700Z,40.31
2023-06-05T01:20:11.693Z,40.34
2023-06-05T01:21:11.690Z,40.35
2023-06-05T01:22:11.689Z,40.32
2023-06-05T01:23:11.674Z,40.32
2023-06-05T01:24:11.670Z,40.35
2023-06-05T01:25:11.660Z,40.35
2023-06-05T01:26:11.661Z,40.32
2023-06-05T01:27:11.665Z,40.36
2023-06-05T01:28:11.647Z,40.34
2023-06-05T01:29:11.653Z,40.36
2023-06-05T01:30:11.631Z,40.36
2023-06-05T01:31:11.792Z,40.34
2023-06-05T01:32:11.615Z,40.34
2023-06-05T01:33:11.666Z,40.36
2023-06-05T01:34:11.598Z,40.35
2023-06-05T01:35:11.610Z,40.34
2023-06-05T01:36:11.581Z,40.34
2023-06-05T01:37:11.588Z,40.36
2023-06-05T01:38:11.575Z,40.36
2023-06-05T01:39:11.566Z,40.38
2023-06-05T01:40:11.571Z,40.35
2023-06-05T01:41:11.586Z,40.35
2023-06-05T01:42:11.556Z,40.37
2023-06-05T01:43:11.548Z,40.34
2023-06-05T01:44:11.529Z,40.34
2023-06-05T01:45:11.534Z,40.33
2023-06-05T01:46:11.523Z,40.33
2023-06-05T01:47:11.521Z,40.30
2023-06-05T01:48:11.524Z,40.29
2023-06-05T01:49:11.510Z,40.30
2023-06-05T01:50:11.486Z,40.31
2023-06-05T01:51:11.488Z,40.32
2023-06-05T01:52:11.485Z,40.31
2023-06-05T01:53:11.479Z,40.29
2023-06-05T01:54:11.478Z,40.31
2023-06-05T01:55:11.461Z,40.30
2023-06-05T01:56:11.460Z,40.32
2023-06-05T01:57:11.453Z,40.29
2023-06-05T01:58:11.441Z,40.29
2023-06-05T01:59:11.420Z,40.30
2023-06-05T02:00:11.437Z,40.30
2023-06-05T02:01:11.424Z,40.29
2023-06-05T02:02:11.443Z,40.30
2023-06-05T02:03:11.533Z,40.31
2023-06-05T02:04:11.487Z,40.29
2023-06-05T02:05:11.407Z,40.31
2023-06-05T02:06:11.390Z,40.31
2023-06-05T02:07:11.374Z,40.30
2023-06-05T02:08:11.373Z,40.32
2023-06-05T02:09:11.376Z,40.31
2023-06-05T02:10:11.374Z,40.29
2023-06-05T02:11:11.455Z,40.28
2023-06-05T02:12:11.390Z,40.29
2023-06-05T02:13:11.340Z,40.26
2023-06-05T02:14:11.319Z,40.25
2023-06-05T02:15:11.323Z,40.26
2023-06-05T02:16:11.327Z,40.25
2023-06-05T02:17:11.299Z,40.26
2023-06-05T02:18:11.297Z,40.23
2023-06-05T02:19:11.299Z,40.25
2023-06-05T02:20:11.292Z,40.26
2023-06-05T02:21:11.360Z,40.25
2023-06-05T02:22:11.265Z,40.25
2023-06-05T02:23:11.250Z,40.25
2023-06-05T02:24:11.300Z,40.25
2023-06-05T02:25:11.252Z,40.25
2023-06-05T02:26:11.251Z,40.25
2023-06-05T02:27:11.248Z,40.28
2023-06-05T02:28:11.231Z,40.25
2023-06-05T02:29:11.222Z,40.27
2023-06-05T02:30:11.214Z,40.24
2023-06-05T02:31:11.515Z,40.26
2023-06-05T02:32:11.211Z,40.25
2023-06-05T02:33:11.179Z,40.26
2023-06-05T02:34:11.203Z,40.25
2023-06-05T02:35:11.168Z,40.27
2023-06-05T02:36:11.171Z,40.27
2023-06-05T02:37:11.175Z,40.25
2023-06-05T02:38:11.151Z,40.27
2023-06-05T02:39:11.143Z,40.27
2023-06-05T02:40:11.137Z,40.26
2023-06-05T02:41:11.212Z,40.27
2023-06-05T02:42:11.129Z,40.25
2023-06-05T02:43:11.114Z,40.25
2023-06-05T02:44:11.108Z,40.27
2023-06-05T02:45:11.119Z,40.26
2023-06-05T02:46:11.203Z,40.27
2023-06-05T02:47:11.144Z,40.27
2023-06-05T02:48:11.085Z,40.28
2023-06-05T02:49:11.096Z,40.27
2023-06-05T02:50:11.072Z,40.26
2023-06-05T02:51:11.055Z,40.27
2023-06-05T02:52:11.057Z,40.23
2023-06-05T02:53:11.044Z,40.22
2023-06-05T02:54:11.667Z,40.28
2023-06-05T02:55:11.041Z,40.26
2023-06-05T02:56:11.035Z,40.27
2023-06-05T02:57:11.045Z,40.23
2023-06-05T02:58:11.001Z,40.21
2023-06-05T02:59:10.995Z,40.22
2023-06-05T03:00:11.009Z,40.23
2023-06-05T03:01:11.178Z,40.22
2023-06-05T03:02:10.996Z,40.21
2023-06-05T03:03:11.046Z,40.19
2023-06-05T03:04:10.979Z,40.21
2023-06-05T03:05:10.963Z,40.19
2023-06-05T03:06:10.955Z,40.16
2023-06-05T03:07:10.953Z,40.20
2023-06-05T03:08:10.965Z,40.19
2023-06-05T03:09:10.949Z,40.20
2023-06-05T03:10:10.921Z,40.22
2023-06-05T03:11:11.266Z,40.21
2023-06-05T03:12:10.937Z,40.19
2023-06-05T03:13:10.914Z,40.20
2023-06-05T03:14:10.955Z,40.21
2023-06-05T03:15:10.925Z,40.19
2023-06-05T03:16:10.990Z,40.23
2023-06-05T03:17:10.947Z,40.21
2023-06-05T03:18:10.996Z,40.20
2023-06-05T03:19:10.940Z,40.21
2023-06-05T03:20:11.022Z,40.23
2023-06-05T03:21:11.017Z,40.22
2023-06-05T03:22:10.975Z,40.22
2023-06-05T03:23:10.987Z,40.22
2023-06-05T03:24:10.996Z,40.24
2023-06-05T03:25:11.004Z,40.24
2023-06-05T03:26:11.023Z,40.22
2023-06-05T03:27:11.000Z,40.22
2023-06-05T03:28:11.011Z,40.23
2023-06-05T03:29:11.029Z,40.22
2023-06-05T03:30:11.033Z,40.25
2023-06-05T03:31:11.037Z,40.24
2023-06-05T03:32:11.050Z,40.25
2023-06-05T03:33:11.162Z,40.26
2023-06-05T03:34:11.088Z,40.26
2023-06-05T03:35:11.053Z,40.26
2023-06-05T03:36:11.066Z,40.25
2023-06-05T03:37:11.072Z,40.25
2023-06-05T03:38:11.097Z,40.27
2023-06-05T03:39:11.118Z,40.30
2023-06-05T03:40:11.201Z,40.30
2023-06-05T03:41:11.311Z,40.27
2023-06-05T03:42:11.135Z,40.31
2023-06-05T03:43:11.162Z,40.28
2023-06-05T03:44:11.154Z,40.33
2023-06-05T03:45:11.161Z,40.33
2023-06-05T03:46:11.211Z,40.33
2023-06-05T03:47:11.204Z,40.34
2023-06-05T03:48:11.201Z,40.34
2023-06-05T03:49:11.225Z,40.32
2023-06-05T03:50:11.239Z,40.32
2023-06-05T03:51:11.345Z,40.35
2023-06-05T03:52:11.251Z,40.38
2023-06-05T03:53:11.265Z,40.37
2023-06-05T03:54:11.301Z,40.39
2023-06-05T03:55:11.280Z,40.38
2023-06-05T03:56:11.304Z,40.39
2023-06-05T03:57:11.303Z,40.40
2023-06-05T03:58:11.309Z,40.41
2023-06-05T03:59:11.322Z,40.42
2023-06-05T04:00:11.428Z,40.41
2023-06-05T04:01:11.529Z,40.40
2023-06-05T04:02:11.461Z,40.40
2023-06-05T04:03:11.457Z,40.39
2023-06-05T04:04:11.425Z,40.40
2023-06-05T04:05:11.397Z,40.41
2023-06-05T04:06:11.428Z,40.41
2023-06-05T04:07:11.453Z,40.40
2023-06-05T04:08:11.451Z,40.39
2023-06-05T04:09:11.462Z,40.41
2023-06-05T04:10:11.486Z,40.39
2023-06-05T04:11:11.490Z,40.34
2023-06-05T04:12:11.523Z,40.36
2023-06-05T04:13:11.531Z,40.37
2023-06-05T04:14:11.527Z,40.36
2023-06-05T04:15:11.621Z,40.37
2023-06-05T04:16:11.596Z,40.35
2023-06-05T04:17:11.645Z,40.35
2023-06-05T04:18:11.612Z,40.33
2023-06-05T04:19:11.597Z,40.36
2023-06-05T04:20:11.642Z,40.36
2023-06-05T04:21:11.621Z,40.37
2023-06-05T04:22:11.650Z,40.35
2023-06-05T04:23:11.660Z,40.34
2023-06-05T04:24:11.774Z,40.35
2023-06-05T04:25:11.706Z,40.32
2023-06-05T04:26:11.716Z,40.34
2023-06-05T04:27:11.740Z,40.37
2023-06-05T04:28:11.763Z,40.37
2023-06-05T04:29:11.763Z,40.36
2023-06-05T04:30:11.785Z,40.37
2023-06-05T04:31:11.998Z,40.39
2023-06-05T04:32:11.820Z,40.38
2023-06-05T04:33:11.834Z,40.40
2023-06-05T04:34:11.847Z,40.41
2023-06-05T04:35:11.857Z,40.40
2023-06-05T04:36:11.862Z,40.41
2023-06-05T04:37:11.897Z,40.41
2023-06-05T04:38:11.910Z,40.43
2023-06-05T04:39:11.925Z,40.40
2023-06-05T04:40:11.942Z,40.42
2023-06-05T04:41:11.926Z,40.43
2023-06-05T04:42:15.536Z,40.43
2023-06-05T04:43:11.934Z,40.42
2023-06-05T04:44:11.928Z,40.44
2023-06-05T04:45:11.945Z,40.42
2023-06-05T04:46:11.969Z,40.44
2023-06-05T04:47:11.914Z,40.46
2023-06-05T04:48:11.939Z,40.45
2023-06-05T04:49:11.897Z,40.45
2023-06-05T04:50:11.901Z,40.46
2023-06-05T04:51:11.879Z,40.46
2023-06-05T04:52:11.882Z,40.44
2023-06-05T04:53:11.906Z,40.46
2023-06-05T04:54:11.877Z,40.49
2023-06-05T04:55:12.719Z,40.48
2023-06-05T04:56:12.118Z,40.50
2023-06-05T04:57:12.096Z,40.54
2023-06-05T04:58:12.083Z,40.53
2023-06-05T04:59:12.075Z,40.52
2023-06-05T05:00:12.067Z,40.55
2023-06-05T05:01:12.085Z,40.55
2023-06-05T05:02:12.178Z,40.58
2023-06-05T05:03:12.123Z,40.60
2023-06-05T05:04:12.178Z,40.60
2023-06-05T05:05:12.147Z,40.61
2023-06-05T05:06:12.150Z,40.63
2023-06-05T05:07:12.185Z,40.61
2023-06-05T05:08:12.199Z,40.65
2023-06-05T05:09:12.214Z,40.66
2023-06-05T05:10:12.221Z,40.67
2023-06-05T05:11:12.249Z,40.70
2023-06-05T05:12:12.236Z,40.72
2023-06-05T05:13:12.267Z,40.70
2023-06-05T05:14:12.274Z,40.69
2023-06-05T05:15:12.292Z,40.66
2023-06-05T05:16:12.329Z,40.69
2023-06-05T05:17:12.338Z,40.69
2023-06-05T05:18:12.332Z,40.69
2023-06-05T05:19:12.390Z,40.71
2023-06-05T05:20:12.381Z,40.71
2023-06-05T05:21:12.418Z,40.71
2023-06-05T05:22:12.429Z,40.71
2023-06-05T05:23:12.442Z,40.74
2023-06-05T05:24:12.470Z,40.74
2023-06-05T05:25:12.523Z,42.09
2023-06-05T05:26:12.556Z,43.95
2023-06-05T05:27:12.583Z,45.07
2023-06-05T05:28:12.604Z,45.95
2023-06-05T05:29:12.585Z,47.19
2023-06-05T05:30:12.630Z,49.80
2023-06-05T05:31:12.824Z,50.85
2023-06-05T05:32:12.767Z,51.07
2023-06-05T05:33:12.704Z,51.28
2023-06-05T05:34:12.707Z,51.98
2023-06-05T05:35:12.726Z,53.00
2023-06-05T05:36:12.756Z,54.68
2023-06-05T05:37:12.809Z,56.02
2023-06-05T05:38:12.847Z,55.95
2023-06-05T05:39:12.871Z,55.25
2023-06-05T05:40:12.881Z,54.97
2023-06-05T05:41:12.900Z,54.83
2023-06-05T05:42:12.922Z,54.93
2023-06-05T05:43:12.953Z,53.86
2023-06-05T05:44:13.019Z,53.15
2023-06-05T05:45:13.053Z,52.38
2023-06-05T05:46:13.096Z,51.70
2023-06-05T05:47:13.189Z,51.01
2023-06-05T05:48:13.057Z,50.41
2023-06-05T05:49:13.093Z,49.92
2023-06-05T05:50:13.167Z,49.51
2023-06-05T05:51:13.230Z,49.07
2023-06-05T05:52:13.285Z,48.65
2023-06-05T05:53:13.330Z,48.33
2023-06-05T05:54:13.358Z,47.99
2023-06-05T05:55:15.132Z,47.70
2023-06-05T05:56:13.430Z,47.49
2023-06-05T05:57:13.464Z,47.23
2023-06-05T05:58:13.465Z,47.03
2023-06-05T05:59:13.491Z,46.91
2023-06-05T06:00:13.587Z,46.73
2023-06-05T06:01:13.526Z,46.59
2023-06-05T06:02:13.583Z,46.54
2023-06-05T06:03:13.628Z,46.43
2023-06-05T06:04:13.588Z,46.35
2023-06-05T06:05:13.690Z,46.25
2023-06-05T06:06:13.599Z,46.21
2023-06-05T06:07:13.558Z,46.15
2023-06-05T06:08:13.564Z,46.13
2023-06-05T06:09:13.555Z,46.09
2023-06-05T06:10:13.570Z,46.08
2023-06-05T06:11:13.578Z,46.01
2023-06-05T06:12:13.580Z,45.93
2023-06-05T06:13:13.578Z,45.90
2023-06-05T06:14:13.597Z,45.83
2023-06-05T06:15:13.592Z,45.81
2023-06-05T06:16:13.590Z,45.77
2023-06-05T06:17:13.582Z,45.72
2023-06-05T06:18:13.683Z,45.70
2023-06-05T06:19:13.623Z,45.64
2023-06-05T06:20:13.601Z,45.57
2023-06-05T06:21:13.582Z,45.47
2023-06-05T06:22:13.619Z,45.47
2023-06-05T06:23:13.581Z,45.48
2023-06-05T06:24:13.593Z,45.47
2023-06-05T06:25:13.609Z,45.46
2023-06-05T06:26:13.594Z,45.42
2023-06-05T06:28:13.590Z,45.46
2023-06-05T06:29:13.580Z,45.44
2023-06-05T06:30:13.592Z,45.48
2023-06-05T06:31:13.604Z,45.54
2023-06-05T06:32:13.706Z,45.51
2023-06-05T06:33:13.553Z,45.54
2023-06-05T06:34:13.540Z,45.64
2023-06-05T06:35:13.532Z,45.65
2023-06-05T06:36:13.553Z,45.61
2023-06-05T06:37:13.712Z,45.84
2023-06-05T06:38:13.514Z,45.83
2023-06-05T06:39:13.487Z,45.84
2023-06-05T06:40:13.504Z,46.05
2023-06-05T06:41:13.492Z,46.22
2023-06-05T06:42:13.726Z,46.30
2023-06-05T06:43:13.473Z,46.07
2023-06-05T06:44:13.452Z,46.41
2023-06-05T06:45:13.510Z,46.22
2023-06-05T06:46:13.430Z,45.93
2023-06-05T06:47:13.468Z,45.68
2023-06-05T06:48:13.523Z,45.59
2023-06-05T06:49:13.503Z,46.24
2023-06-05T06:50:13.414Z,46.25
2023-06-05T06:51:13.409Z,46.32
2023-06-05T06:52:13.404Z,46.16
2023-06-05T06:53:13.400Z,46.32
2023-06-05T06:54:13.397Z,46.25
2023-06-05T06:55:13.391Z,45.97
2023-06-05T06:56:13.370Z,45.82
2023-06-05T06:57:13.381Z,45.83
2023-06-05T06:58:13.364Z,45.73
2023-06-05T06:59:13.353Z,45.83
2023-06-05T07:00:13.347Z,45.68
2023-06-05T07:01:13.427Z,45.52
2023-06-05T07:02:13.383Z,45.38
2023-06-05T07:03:13.377Z,45.35
2023-06-05T07:04:13.326Z,45.25
2023-06-05T07:05:13.314Z,45.43
2023-06-05T07:06:13.309Z,45.32
2023-06-05T07:07:13.317Z,45.34
2023-06-05T07:08:13.326Z,45.19
2023-06-05T07:09:13.295Z,45.14
2023-06-05T07:10:13.295Z,45.04
2023-06-05T07:11:13.270Z,45.01
2023-06-05T07:12:13.270Z,44.99
2023-06-05T07:13:13.277Z,45.27
2023-06-05T07:14:13.276Z,45.17
2023-06-05T07:15:13.273Z,45.14
2023-06-05T07:16:13.290Z,45.14
2023-06-05T07:17:13.263Z,45.47
2023-06-05T07:18:13.238Z,45.19
2023-06-05T07:19:13.255Z,45.15
2023-06-05T07:20:13.266Z,45.22
2023-06-05T07:21:13.228Z,45.32
2023-06-05T07:22:13.215Z,45.28
2023-06-05T07:23:13.219Z,45.38
2023-06-05T07:24:13.365Z,45.31
2023-06-05T07:25:13.204Z,45.25
2023-06-05T07:26:13.203Z,45.38
2023-06-05T07:27:13.256Z,45.53
2023-06-05T07:28:13.182Z,45.77
2023-06-05T07:29:13.179Z,46.19
2023-06-05T07:30:13.152Z,46.31
2023-06-05T07:31:13.226Z,46.27
2023-06-05T07:32:13.251Z,46.52
2023-06-05T07:33:29.194Z,46.69
2023-06-05T07:34:14.313Z,46.48
2023-06-05T07:35:13.278Z,46.60
2023-06-05T07:36:13.257Z,46.40
2023-06-05T07:37:13.327Z,46.59
2023-06-05T07:38:13.250Z,46.88
2023-06-05T07:39:13.255Z,46.68
2023-06-05T07:40:13.243Z,46.49
2023-06-05T07:41:13.217Z,46.24
2023-06-05T07:42:14.472Z,46.35
2023-06-05T07:43:13.197Z,46.61
2023-06-05T07:44:13.230Z,46.65
2023-06-05T07:45:13.266Z,46.66
2023-06-05T07:46:13.356Z,46.14
2023-06-05T07:47:13.769Z,46.15
2023-06-05T07:48:13.372Z,46.18
2023-06-05T07:49:13.381Z,46.48
2023-06-05T07:50:13.431Z,46.46
2023-06-05T07:51:13.476Z,46.30
2023-06-05T07:52:13.762Z,46.02
2023-06-05T07:53:13.546Z,46.20
2023-06-05T07:54:13.578Z,46.39
2023-06-05T07:55:13.564Z,46.27
2023-06-05T07:56:13.607Z,46.19
2023-06-05T07:57:13.745Z,46.00
2023-06-05T07:58:13.662Z,46.16
2023-06-05T07:59:13.685Z,46.33
2023-06-05T08:00:13.717Z,46.15
2023-06-05T08:01:13.746Z,46.51
2023-06-05T08:02:14.295Z,46.29
2023-06-05T08:03:14.009Z,46.21
2023-06-05T08:04:14.159Z,46.10
2023-06-05T08:05:13.874Z,46.19
2023-06-05T08:06:13.888Z,45.97
2023-06-05T08:07:14.245Z,46.04
2023-06-05T08:08:13.913Z,45.91
2023-06-05T08:09:13.933Z,45.92
2023-06-05T08:10:13.950Z,45.95
2023-06-05T08:11:13.953Z,45.89
2023-06-05T08:12:13.957Z,45.97
2023-06-05T08:13:13.959Z,45.77
2023-06-05T08:14:13.966Z,45.86
2023-06-05T08:15:13.976Z,45.80
2023-06-05T08:16:13.979Z,45.79
2023-06-05T08:17:14.080Z,45.89
2023-06-05T08:18:13.968Z,45.91
2023-06-05T08:19:13.979Z,45.92
2023-06-05T08:20:13.955Z,45.94
2023-06-05T08:21:13.951Z,46.05
2023-06-05T08:22:14.249Z,46.25
2023-06-05T08:23:13.966Z,46.20
2023-06-05T08:24:13.965Z,46.25
2023-06-05T08:25:14.030Z,46.13
2023-06-05T08:26:14.042Z,46.16
2023-06-05T08:27:14.109Z,46.10
2023-06-05T08:28:14.140Z,46.07
2023-06-05T08:29:14.186Z,46.14
2023-06-05T08:30:14.232Z,46.26
2023-06-05T08:31:14.307Z,46.34
2023-06-05T08:32:14.368Z,46.27
2023-06-05T08:33:14.392Z,46.41
2023-06-05T08:34:14.458Z,46.69
2023-06-05T08:35:14.522Z,47.00
2023-06-05T08:36:14.616Z,46.88
2023-06-05T08:37:14.756Z,46.93
2023-06-05T08:38:14.716Z,47.03
2023-06-05T08:39:14.778Z,46.94
2023-06-05T08:40:14.832Z,47.00
2023-06-05T08:41:14.940Z,47.21
2023-06-05T08:42:15.254Z,47.03
2023-06-05T08:43:15.026Z,46.89
2023-06-05T08:44:15.084Z,46.92
2023-06-05T08:45:15.146Z,47.02
2023-06-05T08:46:15.254Z,46.93
2023-06-05T08:47:15.800Z,46.90
2023-06-05T08:48:15.363Z,47.05
2023-06-05T08:49:15.406Z,46.97
2023-06-05T08:50:15.474Z,47.03
2023-06-05T08:51:15.537Z,47.08
2023-06-05T08:52:15.586Z,47.01
2023-06-05T08:53:17.809Z,47.24
2023-06-05T08:54:15.640Z,47.03
2023-06-05T08:55:15.664Z,46.96
2023-06-05T08:56:15.619Z,46.96
2023-06-05T08:57:15.620Z,47.07
2023-06-05T08:58:15.629Z,46.87
2023-06-05T08:59:15.622Z,46.95
2023-06-05T09:00:15.591Z,47.00
2023-06-05T09:01:15.632Z,46.95
2023-06-05T09:02:15.768Z,46.95
2023-06-05T09:03:15.593Z,46.84
2023-06-05T09:04:15.576Z,46.90
2023-06-05T09:05:15.557Z,46.93
2023-06-05T09:06:15.584Z,46.83
2023-06-05T09:07:15.773Z,46.70
2023-06-05T09:08:15.550Z,46.85
2023-06-05T09:09:15.537Z,46.83
2023-06-05T09:10:15.542Z,46.86
2023-06-05T09:11:15.535Z,46.82
2023-06-05T09:12:15.782Z,46.72
2023-06-05T09:13:15.504Z,46.77
2023-06-05T09:14:15.505Z,46.74
2023-06-05T09:15:15.500Z,46.72
2023-06-05T09:16:15.522Z,44.94
2023-06-05T09:17:15.517Z,44.69
2023-06-05T09:18:15.522Z,45.82
2023-06-05T09:19:15.492Z,46.83
2023-06-05T09:20:15.482Z,46.84
2023-06-05T09:21:15.475Z,46.82
2023-06-05T09:22:15.814Z,46.94
2023-06-05T09:23:25.150Z,46.93
2023-06-05T09:24:16.555Z,46.95
2023-06-05T09:25:15.442Z,47.00
2023-06-05T09:26:15.424Z,46.94
2023-06-05T09:27:15.429Z,45.66
2023-06-05T09:28:15.436Z,44.54
2023-06-05T09:29:15.417Z,46.14
2023-06-05T09:30:15.412Z,46.88
2023-06-05T09:31:15.421Z,47.54
2023-06-05T09:32:15.802Z,47.84
2023-06-05T09:33:15.382Z,48.27
2023-06-05T09:34:15.389Z,48.75
2023-06-05T09:35:15.370Z,48.60
2023-06-05T09:36:15.403Z,48.51
2023-06-05T09:37:15.806Z,48.34
2023-06-05T09:38:15.424Z,48.41
2023-06-05T09:39:15.450Z,48.16
2023-06-05T09:40:15.430Z,47.93
2023-06-05T09:41:15.439Z,47.79
2023-06-05T09:42:15.804Z,47.55
2023-06-05T09:43:15.432Z,47.66
2023-06-05T09:44:15.466Z,47.37
2023-06-05T09:45:15.518Z,47.86
2023-06-05T09:46:15.612Z,47.42
2023-06-05T09:47:15.712Z,47.28
2023-06-05T09:48:15.750Z,47.41
2023-06-05T09:49:15.725Z,47.21
2023-06-05T09:50:15.837Z,47.03
2023-06-05T09:51:15.880Z,46.92
2023-06-05T09:52:15.920Z,46.95
2023-06-05T09:53:15.937Z,46.85
2023-06-05T09:54:15.983Z,46.69
2023-06-05T09:55:16.044Z,46.76
2023-06-05T09:56:16.105Z,46.68
2023-06-05T09:57:16.365Z,46.62
2023-06-05T09:58:16.185Z,46.56
2023-06-05T09:59:16.229Z,46.49
2023-06-05T10:00:17.199Z,46.41
2023-06-05T10:01:16.351Z,46.34
2023-06-05T10:02:16.337Z,46.31
2023-06-05T10:03:16.399Z,45.92
2023-06-05T10:04:16.476Z,46.09
2023-06-05T10:05:16.479Z,46.22
2023-06-05T10:06:19.955Z,46.05
2023-06-05T10:07:16.543Z,46.27
2023-06-05T10:08:16.534Z,46.35
2023-06-05T10:09:16.509Z,46.28
2023-06-05T10:10:16.538Z,46.22
2023-06-05T10:11:16.510Z,46.22
2023-06-05T10:12:16.502Z,45.81
2023-06-05T10:13:18.769Z,45.89
2023-06-05T10:14:16.487Z,46.17
2023-06-05T10:15:16.482Z,46.16
2023-06-05T10:16:25.576Z,46.00
2023-06-05T10:17:17.502Z,46.12
2023-06-05T10:18:16.478Z,46.04
2023-06-05T10:19:16.450Z,46.07
2023-06-05T10:20:17.405Z,46.01
2023-06-05T10:21:16.428Z,45.97
2023-06-05T10:22:16.848Z,44.00
2023-06-05T10:23:16.411Z,44.01
2023-06-05T10:24:16.445Z,44.01
2023-06-05T10:25:16.410Z,43.91
2023-06-05T10:26:16.386Z,45.28
2023-06-05T10:27:16.381Z,45.06
2023-06-05T10:28:16.375Z,45.45
2023-06-05T10:29:16.380Z,45.68
2023-06-05T10:30:16.482Z,45.41
2023-06-05T10:31:16.400Z,45.44
2023-06-05T10:32:16.401Z,45.39
2023-06-05T10:33:16.339Z,44.50
2023-06-05T10:34:16.348Z,45.08
2023-06-05T10:35:16.329Z,45.21
2023-06-05T10:36:16.317Z,45.24
2023-06-05T10:37:16.313Z,45.33
2023-06-05T10:38:16.303Z,45.26
2023-06-05T10:39:16.306Z,45.15
2023-06-05T10:40:16.311Z,45.18
2023-06-05T10:41:16.302Z,45.15
2023-06-05T10:42:16.284Z,45.08
2023-06-05T10:43:16.289Z,45.10
2023-06-05T10:44:16.284Z,45.01
2023-06-05T10:45:16.371Z,44.93
2023-06-05T10:46:16.536Z,44.90
2023-06-05T10:47:16.305Z,44.86
2023-06-05T10:48:16.262Z,44.76
2023-06-05T10:49:16.251Z,44.73
2023-06-05T10:50:16.246Z,44.72
2023-06-05T10:51:16.249Z,44.72
2023-06-05T10:52:16.219Z,44.67
2023-06-05T10:53:16.224Z,44.67
2023-06-05T10:54:16.219Z,44.64
2023-06-05T10:55:16.227Z,44.58
2023-06-05T10:56:16.204Z,44.56
2023-06-05T10:57:16.333Z,44.58
2023-06-05T10:58:16.508Z,44.61
2023-06-05T10:59:16.176Z,44.54
2023-06-05T11:00:16.176Z,44.43
2023-06-05T11:01:16.185Z,44.49
2023-06-05T11:02:16.344Z,44.50
2023-06-05T11:03:16.183Z,44.50
2023-06-05T11:04:16.181Z,44.49
2023-06-05T11:05:16.191Z,44.47
2023-06-05T11:06:16.125Z,44.47
2023-06-05T11:07:16.333Z,44.50
2023-06-05T11:08:16.146Z,44.53
2023-06-05T11:09:16.097Z,44.31
2023-06-05T11:10:16.108Z,44.48
2023-06-05T11:11:16.140Z,44.41
2023-06-05T11:12:16.199Z,44.39
2023-06-05T11:13:16.207Z,44.33
2023-06-05T11:14:16.234Z,44.45
2023-06-05T11:15:16.464Z,44.73
2023-06-05T11:16:16.378Z,44.68
2023-06-05T11:17:17.622Z,44.28
2023-06-05T11:18:16.427Z,44.32
2023-06-05T11:19:16.457Z,43.90
2023-06-05T11:20:16.544Z,44.00
2023-06-05T11:21:16.567Z,43.78
2023-06-05T11:22:16.832Z,43.83
2023-06-05T11:23:16.672Z,43.83
2023-06-05T11:24:16.736Z,43.65
2023-06-05T11:25:16.860Z,43.68
2023-06-05T11:26:16.851Z,43.73
2023-06-05T11:27:16.841Z,43.72
2023-06-05T11:28:16.837Z,43.61
2023-06-05T11:29:16.926Z,43.73
2023-06-05T11:30:19.723Z,43.59
2023-06-05T11:31:17.869Z,43.67
2023-06-05T11:32:16.868Z,43.70
2023-06-05T11:33:17.179Z,43.78
2023-06-05T11:34:16.817Z,43.72
2023-06-05T11:35:16.809Z,43.74
2023-06-05T11:36:16.810Z,43.72
2023-06-05T11:37:16.786Z,43.71
2023-06-05T11:38:17.811Z,43.65
2023-06-05T11:39:16.773Z,43.57
2023-06-05T11:40:16.789Z,43.35
2023-06-05T11:41:16.765Z,43.20
2023-06-05T11:42:16.743Z,43.18
2023-06-05T11:43:16.758Z,43.12
2023-06-05T11:44:16.728Z,43.19
2023-06-05T11:45:16.734Z,43.25
2023-06-05T11:46:16.785Z,43.25
2023-06-05T11:47:16.761Z,43.14
2023-06-05T11:48:16.721Z,43.20
2023-06-05T11:49:16.690Z,43.29
2023-06-05T11:50:16.699Z,43.11
2023-06-05T11:51:16.686Z,43.29
2023-06-05T11:52:16.677Z,43.41
2023-06-05T11:53:16.666Z,43.59
2023-06-05T11:54:16.655Z,43.67
2023-06-05T11:55:16.732Z,43.59
2023-06-05T11:56:16.716Z,43.69
2023-06-05T11:57:16.648Z,43.80
2023-06-05T11:58:16.635Z,43.77
2023-06-05T11:59:16.639Z,43.69
2023-06-05T12:00:16.648Z,43.84
2023-06-05T12:01:16.622Z,44.09
2023-06-05T12:02:16.680Z,44.50
2023-06-05T12:03:16.880Z,44.43
2023-06-05T12:04:17.597Z,44.60
2023-06-05T12:05:16.602Z,44.70
2023-06-05T12:06:16.594Z,44.67
2023-06-05T12:07:16.596Z,44.71
2023-06-05T12:08:16.562Z,44.60
2023-06-05T12:09:16.548Z,44.48
2023-06-05T12:10:16.574Z,44.49
2023-06-05T12:11:16.533Z,44.30
2023-06-05T12:12:16.538Z,44.24
2023-06-05T12:13:16.891Z,44.20
2023-06-05T12:14:16.530Z,44.36
2023-06-05T12:15:16.534Z,44.14
2023-06-05T12:16:16.576Z,44.04
2023-06-05T12:17:16.519Z,44.03
2023-06-05T12:18:16.506Z,44.32
2023-06-05T12:19:16.836Z,44.31
2023-06-05T12:20:16.487Z,44.45
2023-06-05T12:21:16.480Z,44.38
2023-06-05T12:22:16.474Z,44.44
2023-06-05T12:23:16.483Z,44.49
2023-06-05T12:24:16.482Z,44.52
2023-06-05T12:25:21.089Z,44.29
2023-06-05T12:26:17.431Z,44.30
2023-06-05T12:27:16.437Z,44.23
2023-06-05T12:28:16.420Z,44.41
2023-06-05T12:29:16.427Z,44.40
2023-06-05T12:30:16.404Z,43.91
2023-06-05T12:31:16.458Z,43.62
2023-06-05T12:32:16.391Z,43.64
2023-06-05T12:33:16.409Z,43.65
2023-06-05T12:34:16.373Z,43.66
2023-06-05T12:35:16.389Z,43.75
2023-06-05T12:36:16.365Z,43.66
2023-06-05T12:37:16.390Z,43.71
2023-06-05T12:38:16.347Z,43.72
2023-06-05T12:39:16.378Z,43.72
2023-06-05T12:40:28.325Z,43.56
2023-06-05T12:41:17.490Z,43.62
2023-06-05T12:42:16.418Z,43.58
2023-06-05T12:43:16.421Z,43.57
2023-06-05T12:44:16.420Z,43.46
2023-06-05T12:45:16.429Z,43.49
2023-06-05T12:46:16.513Z,43.47
2023-06-05T12:47:16.425Z,43.29
2023-06-05T12:48:16.404Z,43.03
2023-06-05T12:49:16.374Z,43.09
2023-06-05T12:50:16.430Z,43.04
2023-06-05T12:51:16.502Z,42.64
2023-06-05T12:52:16.561Z,42.66
2023-06-05T12:53:16.624Z,42.57